Time;durP1;ratioP1;P1;durP2;ratioP2;P2;SDS_P1;SDS_P2;PMS_P1;PMS_P2;Temp;Humidity;BMP_temperature;BMP_pressure;BME280_temperature;BME280_humidity;BME280_pressure;Samples;Min_cycle;Max_cycle;Signal;HPM_P1;HPM_P2
2024/04/06 00:01:36;;;;;;;3.90;1.77;;;14.70;91.30;;;;;;5079742;28;20363;-71
2024/04/06 00:04:04;;;;;;;1.90;1.30;;;;;;;;;;5078367;28;20029;-69
2024/04/06 00:06:29;;;;;;;4.35;1.65;;;14.90;97.40;;;;;;5079709;28;20024;-69
2024/04/06 00:09:04;;;;;;;3.55;1.58;;;15.00;96.90;;;;;;5080249;28;20081;-69
2024/04/06 00:11:29;;;;;;;4.57;1.75;;;15.10;96.40;;;;;;5079754;28;20111;-68
2024/04/06 00:13:55;;;;;;;2.28;1.50;;;14.90;96.30;;;;;;5079593;28;20047;-68
2024/04/06 00:16:21;;;;;;;4.05;1.50;;;15.10;96.00;;;;;;5079414;28;20032;-68
2024/04/06 00:18:46;;;;;;;3.03;1.45;;;15.20;95.90;;;;;;5079540;28;20099;-68
2024/04/06 00:21:12;;;;;;;6.15;1.73;;;15.30;95.50;;;;;;5079407;28;20027;-68
2024/04/06 00:23:38;;;;;;;3.83;1.83;;;15.10;95.20;;;;;;5079487;28;20051;-67
2024/04/06 00:26:03;;;;;;;3.90;1.60;;;15.30;95.00;;;;;;5079874;28;20051;-67
2024/04/06 00:28:29;;;;;;;3.67;1.63;;;15.30;91.50;;;;;;5079431;28;20032;-67
2024/04/06 00:30:55;;;;;;;6.93;2.10;;;15.40;94.60;;;;;;5079323;28;20028;-67
2024/04/06 00:33:21;;;;;;;2.40;1.60;;;15.30;87.00;;;;;;5079516;28;20033;-67
2024/04/06 00:35:47;;;;;;;2.30;1.58;;;;;;;;;;5079250;28;20094;-67
2024/04/06 00:38:13;;;;;;;3.35;1.60;;;;;;;;;;5079313;28;20084;-68
2024/04/06 00:40:40;;;;;;;3.85;1.38;;;;;;;;;;5084815;28;20039;-68
2024/04/06 00:43:05;;;;;;;2.53;1.30;;;15.50;93.70;;;;;;5079818;28;20032;-68
2024/04/06 00:45:31;;;;;;;4.78;1.23;;;15.50;93.70;;;;;;5079203;28;20040;-68
2024/04/06 00:47:57;;;;;;;3.17;1.50;;;15.50;93.50;;;;;;5079050;28;20036;-68
2024/04/06 00:50:23;;;;;;;3.95;1.63;;;15.50;85.80;;;;;;5077994;28;20084;-68
2024/04/06 00:52:49;;;;;;;1.88;1.42;;;15.50;93.20;;;;;;5091194;28;20184;-68
2024/04/06 00:55:15;;;;;;;5.07;1.98;;;;;;;;;;5079220;28;20364;-68
2024/04/06 00:57:40;;;;;;;2.65;1.75;;;15.60;93.20;;;;;;5079478;28;20035;-68
2024/04/06 01:00:07;;;;;;;4.00;1.80;;;15.60;93.00;;;;;;5079550;28;20045;-68
2024/04/06 01:02:33;;;;;;;4.55;1.98;;;;;;;;;;5079257;28;20359;-68
2024/04/06 01:04:59;;;;;;;3.03;1.65;;;15.60;93.00;;;;;;5080311;28;20082;-68
2024/04/06 01:07:25;;;;;;;3.30;1.33;;;;;;;;;;5086161;28;20036;-70
2024/04/06 01:09:51;;;;;;;7.72;1.65;;;15.40;88.40;;;;;;5079020;28;20258;-69
2024/04/06 01:12:16;;;;;;;2.67;1.38;;;15.30;94.90;;;;;;5077832;28;20047;-70
2024/04/06 01:14:43;;;;;;;4.22;1.50;;;;;;;;;;5078999;28;20040;-70
2024/04/06 01:17:10;;;;;;;3.25;1.58;;;15.00;89.50;;;;;;5085165;28;20043;-69
2024/04/06 01:19:37;;;;;;;6.27;1.60;;;;;;;;;;5081762;28;20350;-67
2024/04/06 01:22:03;;;;;;;4.05;1.80;;;;;;;;;;5083027;28;20055;-66
2024/04/06 01:24:30;;;;;;;4.90;1.83;;;14.80;95.60;;;;;;5082787;28;20063;-68
2024/04/06 01:26:57;;;;;;;2.15;1.48;;;14.60;91.70;;;;;;5081581;28;20044;-70
2024/04/06 01:29:25;;;;;;;3.22;1.58;;;14.50;92.50;;;;;;5082904;28;20339;-70
2024/04/06 01:31:51;;;;;;;4.53;1.45;;;14.20;99.90;;;;;;5083281;28;20020;-69
2024/04/06 01:34:17;;;;;;;2.78;1.80;;;14.20;99.90;;;;;;5082687;28;20499;-70
2024/04/06 01:36:44;;;;;;;7.35;1.40;;;14.20;94.60;;;;;;5082776;28;20059;-70
2024/04/06 01:39:11;;;;;;;4.00;1.48;;;14.20;99.90;;;;;;5082661;28;20028;-67
2024/04/06 01:41:38;;;;;;;3.08;1.60;;;14.30;99.90;;;;;;5082622;28;20024;-67
2024/04/06 01:44:04;;;;;;;2.47;1.60;;;14.10;95.50;;;;;;5082423;28;20074;-67
2024/04/06 01:46:30;;;;;;;5.55;1.73;;;14.20;99.90;;;;;;5082695;28;20380;-67
2024/04/06 01:48:57;;;;;;;4.53;1.60;;;14.00;96.50;;;;;;5090014;28;20325;-70
2024/04/06 01:51:29;;;;;;;1.65;1.10;;;14.00;96.60;;;;;;5090617;28;20040;-67
2024/04/06 01:53:54;;;;;;;2.50;1.38;;;14.10;96.00;;;;;;5082354;28;20099;-68
2024/04/06 01:56:20;;;;;;;2.17;1.60;;;14.10;95.80;;;;;;5082340;28;20228;-67
2024/04/06 01:58:46;;;;;;;4.07;1.90;;;14.10;95.80;;;;;;5082499;28;20044;-67
2024/04/06 02:01:12;;;;;;;8.60;1.95;;;14.10;96.00;;;;;;5081006;28;20304;-67
2024/04/06 02:03:39;;;;;;;4.80;1.63;;;14.10;95.90;;;;;;5082562;28;20036;-67
2024/04/06 02:06:08;;;;;;;4.40;1.63;;;14.10;99.90;;;;;;5082685;28;20028;-67
2024/04/06 02:08:35;;;;;;;1.95;1.40;;;14.10;96.10;;;;;;5082328;28;20036;-67
2024/04/06 02:11:01;;;;;;;6.20;1.70;;;14.10;96.20;;;;;;5082210;28;20031;-67
2024/04/06 02:13:27;;;;;;;3.20;1.88;;;14.00;99.90;;;;;;5088613;28;20040;-67
2024/04/06 02:15:52;;;;;;;2.47;1.40;;;14.00;97.00;;;;;;5081526;28;20309;-68
2024/04/06 02:18:18;;;;;;;4.57;1.35;;;14.00;97.30;;;;;;5081983;28;20067;-67
2024/04/06 02:20:44;;;;;;;4.85;1.80;;;14.10;99.90;;;;;;5080565;28;20491;-69
2024/04/06 02:23:09;;;;;;;7.38;2.60;;;14.00;98.10;;;;;;5082312;28;20893;-69
2024/04/06 02:25:35;;;;;;;3.53;1.92;;;14.60;98.50;;;;;;5081648;28;20044;-69
2024/04/06 02:28:01;;;;;;;2.33;1.70;;;14.00;98.40;;;;;;5086093;28;20046;-67
2024/04/06 02:30:27;;;;;;;2.47;1.63;;;14.00;98.90;;;;;;5082627;28;20032;-67
2024/04/06 02:32:52;;;;;;;1.83;1.30;;;14.00;98.90;;;;;;5081537;28;20074;-68
2024/04/06 02:35:18;;;;;;;4.05;1.50;;;13.90;99.90;;;;;;5080710;28;20032;-69
2024/04/06 02:37:44;;;;;;;3.33;1.88;;;13.90;99.20;;;;;;5083398;28;20032;-68
2024/04/06 02:40:11;;;;;;;4.72;1.50;;;13.90;99.40;;;;;;5083745;28;20063;-67
2024/04/06 02:42:37;;;;;;;2.40;1.42;;;13.90;99.50;;;;;;5083230;28;20099;-67
2024/04/06 02:45:03;;;;;;;3.80;1.70;;;13.90;99.90;;;;;;5083241;28;20035;-69
2024/04/06 02:47:29;;;;;;;3.58;1.67;;;13.80;99.90;;;;;;5081012;28;20056;-66
2024/04/06 02:49:55;;;;;;;4.88;1.77;;;13.80;99.90;;;;;;5081436;28;20051;-69
2024/04/06 02:52:21;;;;;;;4.22;1.77;;;13.90;99.90;;;;;;5081755;28;20017;-68
2024/04/06 02:54:48;;;;;;;3.25;1.55;;;13.90;99.90;;;;;;5081771;28;20413;-70
2024/04/06 02:57:14;;;;;;;2.92;1.50;;;13.80;99.90;;;;;;5085906;28;20032;-70
2024/04/06 02:59:41;;;;;;;6.18;1.77;;;13.80;99.90;;;;;;5081552;28;20105;-69
2024/04/06 03:02:09;;;;;;;7.68;2.30;;;13.80;99.90;;;;;;5080955;28;20100;-69
2024/04/06 03:04:35;;;;;;;2.15;1.45;;;13.80;99.90;;;;;;5081405;28;20040;-69
2024/04/06 03:07:02;;;;;;;3.38;1.80;;;13.80;99.90;;;;;;5089695;28;20066;-67
2024/04/06 03:09:29;;;;;;;3.40;1.80;;;13.60;99.90;;;;;;5081156;28;20032;-69
2024/04/06 03:11:55;;;;;;;3.15;1.40;;;13.60;99.90;;;;;;5080906;28;20071;-68
2024/04/06 03:14:21;;;;;;;3.17;1.63;;;13.70;99.90;;;;;;5081604;28;20039;-65
2024/04/06 03:16:47;;;;;;;2.03;1.58;;;13.50;99.90;;;;;;5080629;28;20028;-69
2024/04/06 03:19:12;;;;;;;4.72;1.70;;;13.70;99.90;;;;;;5080930;28;20094;-69
2024/04/06 03:21:38;;;;;;;3.33;1.52;;;13.60;99.90;;;;;;5080687;28;20040;-70
2024/04/06 03:24:04;;;;;;;3.22;1.83;;;13.60;99.90;;;;;;5080487;28;20059;-70
2024/04/06 03:26:29;;;;;;;8.68;2.97;;;13.60;99.90;;;;;;5081055;28;20049;-69
2024/04/06 03:28:55;;;;;;;3.05;1.85;;;13.60;99.90;;;;;;5080608;28;20032;-70
2024/04/06 03:31:21;;;;;;;2.80;1.95;;;13.50;99.90;;;;;;5081174;28;20028;-70
2024/04/06 03:33:46;;;;;;;3.00;2.00;;;13.50;99.90;;;;;;5080706;28;20062;-70
2024/04/06 03:36:12;;;;;;;2.30;1.42;;;13.60;99.90;;;;;;5080402;28;20069;-70
2024/04/06 03:38:38;;;;;;;3.35;1.70;;;13.50;99.90;;;;;;5080376;28;20125;-73
2024/04/06 03:41:04;;;;;;;2.92;1.70;;;13.80;99.90;;;;;;5080139;28;20115;-73
2024/04/06 03:43:30;;;;;;;6.05;2.00;;;;;;;;;;5080376;28;20035;-70
2024/04/06 03:45:56;;;;;;;6.78;1.60;;;;;;;;;;5080141;28;20265;-70
2024/04/06 03:48:22;;;;;;;4.18;1.80;;;13.50;99.90;;;;;;5081275;28;20348;-70
2024/04/06 03:50:48;;;;;;;4.70;2.00;;;13.40;99.90;;;;;;5078842;28;20040;-68
2024/04/06 03:53:15;;;;;;;3.38;1.75;;;13.40;99.90;;;;;;5080049;28;20595;-68
2024/04/06 03:55:41;;;;;;;2.78;1.88;;;13.30;99.90;;;;;;5080005;28;20036;-68
2024/04/06 03:58:07;;;;;;;3.10;2.10;;;13.50;99.90;;;;;;5079636;28;20040;-68
2024/04/06 04:00:33;;;;;;;6.18;2.05;;;13.40;99.90;;;;;;5079217;28;20078;-69
2024/04/06 04:02:58;;;;;;;6.80;2.40;;;13.20;99.90;;;;;;5077730;28;20041;-69
2024/04/06 04:05:24;;;;;;;6.57;1.92;;;13.20;99.90;;;;;;5078849;28;20123;-68
2024/04/06 04:07:50;;;;;;;12.45;2.83;;;13.20;99.90;;;;;;5079068;28;20386;-69
2024/04/06 04:10:16;;;;;;;3.90;2.05;;;13.20;99.90;;;;;;5079466;28;20063;-68
2024/04/06 04:12:41;;;;;;;1.98;1.60;;;13.30;99.90;;;;;;5079676;28;20066;-67
2024/04/06 04:15:07;;;;;;;4.00;2.00;;;13.20;99.90;;;;;;5079614;28;20036;-67
2024/04/06 04:17:33;;;;;;;4.07;1.92;;;13.20;99.90;;;;;;5079476;28;20101;-67
2024/04/06 04:20:05;;;;;;;3.70;2.60;;;13.20;99.90;;;;;;5080042;28;20094;-67
2024/04/06 04:22:31;;;;;;;4.22;2.47;;;13.30;99.90;;;;;;5080492;28;20056;-67
2024/04/06 04:24:57;;;;;;;4.88;2.72;;;13.30;99.90;;;;;;5079259;28;20418;-68
2024/04/06 04:27:24;;;;;;;5.60;2.22;;;13.40;99.90;;;;;;5079630;28;20048;-68
2024/04/06 04:29:51;;;;;;;4.60;2.72;;;13.30;99.90;;;;;;5079365;28;20079;-68
2024/04/06 04:32:17;;;;;;;5.55;2.30;;;13.30;99.90;;;;;;5079694;28;20028;-68
2024/04/06 04:34:42;;;;;;;4.25;2.63;;;13.30;99.90;;;;;;5079325;28;20355;-68
2024/04/06 04:37:08;;;;;;;3.90;1.88;;;13.20;99.90;;;;;;5079175;28;20036;-70
2024/04/06 04:39:34;;;;;;;6.07;2.30;;;13.30;99.90;;;;;;5079932;28;20028;-67
2024/04/06 04:42:03;;;;;;;2.53;1.83;;;13.30;99.90;;;;;;5079145;28;20036;-70
2024/04/06 04:44:29;;;;;;;2.90;1.98;;;13.30;99.90;;;;;;5079286;28;20062;-70
2024/04/06 04:46:55;;;;;;;4.88;1.92;;;13.30;99.90;;;;;;5085002;28;20365;-65
2024/04/06 04:49:22;;;;;;;2.83;1.25;;;13.30;99.90;;;;;;5080353;28;20025;-66
2024/04/06 04:51:48;;;;;;;4.10;1.60;;;13.30;99.90;;;;;;5095331;28;20036;-66
2024/04/06 04:54:14;;;;;;;3.22;1.88;;;13.30;99.90;;;;;;5079307;28;20021;-69
2024/04/06 04:56:40;;;;;;;3.05;1.55;;;13.30;99.90;;;;;;5079455;28;20047;-68
2024/04/06 04:59:06;;;;;;;3.03;1.88;;;13.30;99.90;;;;;;5079032;28;20036;-69
2024/04/06 05:01:32;;;;;;;3.90;1.70;;;13.30;99.90;;;;;;5079218;28;20040;-69
2024/04/06 05:03:58;;;;;;;2.72;1.88;;;13.30;99.90;;;;;;5079211;28;20055;-68
2024/04/06 05:06:23;;;;;;;5.03;2.35;;;13.30;99.90;;;;;;5079329;28;20267;-71
2024/04/06 05:08:49;;;;;;;2.40;1.92;;;13.50;99.90;;;;;;5077939;28;20031;-69
2024/04/06 05:11:15;;;;;;;2.72;1.85;;;13.40;99.90;;;;;;5079098;28;20029;-71
2024/04/06 05:13:41;;;;;;;4.22;2.17;;;13.50;99.90;;;;;;5081759;28;20391;-72
2024/04/06 05:16:07;;;;;;;3.83;2.35;;;13.30;99.90;;;;;;5078963;28;20063;-72
2024/04/06 05:18:32;;;;;;;5.80;2.40;;;13.60;99.90;;;;;;5078258;28;20346;-73
2024/04/06 05:20:58;;;;;;;6.07;2.80;;;13.60;99.90;;;;;;5078907;28;20115;-72
2024/04/06 05:23:27;;;;;;;4.85;2.17;;;13.90;99.90;;;;;;5079293;28;20052;-73
2024/04/06 05:25:53;;;;;;;7.90;2.28;;;13.90;99.90;;;;;;5078651;28;20072;-73
2024/04/06 05:28:25;;;;;;;5.75;2.38;;;13.60;99.90;;;;;;5079002;28;20046;-73
2024/04/06 05:30:51;;;;;;;4.32;2.30;;;13.90;99.90;;;;;;5078019;28;20486;-72
2024/04/06 05:33:22;;;;;;;6.63;2.28;;;13.80;99.90;;;;;;5077582;28;20024;-72
2024/04/06 05:35:49;;;;;;;6.18;2.10;;;13.70;99.90;;;;;;5078920;28;20267;-72
2024/04/06 05:38:16;;;;;;;5.20;2.22;;;13.80;99.90;;;;;;5078689;28;20020;-72
2024/04/06 05:40:43;;;;;;;8.02;2.75;;;13.90;99.90;;;;;;5078660;28;20047;-71
2024/04/06 05:43:10;;;;;;;5.85;2.78;;;13.80;99.90;;;;;;5077387;28;20328;-72
2024/04/06 05:45:42;;;;;;;5.95;2.47;;;14.20;99.90;;;;;;5078737;28;20396;-72
2024/04/06 05:48:09;;;;;;;7.28;2.55;;;14.20;99.90;;;;;;5079232;28;20074;-72
2024/04/06 05:50:36;;;;;;;4.80;2.90;;;14.40;99.90;;;;;;5078722;28;20102;-72
2024/04/06 05:53:03;;;;;;;9.40;2.28;;;14.40;99.90;;;;;;5078910;28;20033;-72
2024/04/06 05:55:30;;;;;;;6.38;2.30;;;14.30;99.90;;;;;;5078789;28;20337;-72
2024/04/06 05:57:57;;;;;;;4.93;2.65;;;14.40;99.90;;;;;;5085083;28;20083;-72
2024/04/06 06:00:26;;;;;;;5.90;2.47;;;14.70;99.90;;;;;;5079080;28;20326;-72
2024/04/06 06:02:53;;;;;;;11.18;3.08;;;14.60;99.90;;;;;;5079840;28;20105;-71
2024/04/06 06:05:19;;;;;;;6.05;3.22;;;14.80;99.90;;;;;;5082947;28;20039;-72
2024/04/06 06:07:46;;;;;;;8.15;3.47;;;14.90;99.90;;;;;;5089799;28;20109;-72
2024/04/06 06:10:12;;;;;;;5.55;3.40;;;15.10;99.90;;;;;;5082610;28;20031;-72
2024/04/06 06:12:37;;;;;;;7.95;2.90;;;14.90;99.90;;;;;;5082131;28;20036;-72
2024/04/06 06:15:04;;;;;;;6.45;2.88;;;14.90;99.90;;;;;;5080510;28;20032;-72
2024/04/06 06:17:29;;;;;;;8.43;3.42;;;14.80;99.90;;;;;;5082658;28;20050;-72
2024/04/06 06:19:55;;;;;;;5.97;3.10;;;14.90;99.90;;;;;;5093827;28;20055;-72
2024/04/06 06:22:22;;;;;;;7.18;3.30;;;15.00;99.90;;;;;;5082502;28;20028;-73
2024/04/06 06:24:53;;;;;;;7.65;3.33;;;14.90;99.90;;;;;;5081617;28;20194;-73
2024/04/06 06:27:19;;;;;;;7.47;3.15;;;15.00;99.90;;;;;;5080690;28;20070;-70
2024/04/06 06:29:44;;;;;;;8.57;3.42;;;15.10;99.90;;;;;;5081863;28;20040;-71
2024/04/06 06:32:10;;;;;;;8.68;2.92;;;15.20;99.50;;;;;;5081786;28;20038;-70
2024/04/06 06:34:36;;;;;;;5.85;2.65;;;15.30;99.10;;;;;;5081643;28;20320;-71
2024/04/06 06:37:02;;;;;;;7.68;3.00;;;15.30;98.80;;;;;;5081459;28;20032;-72
2024/04/06 06:39:29;;;;;;;8.80;2.65;;;15.40;98.60;;;;;;5083592;28;20048;-72
2024/04/06 06:41:55;;;;;;;7.85;3.55;;;15.50;98.30;;;;;;5082824;28;20081;-73
2024/04/06 06:44:21;;;;;;;6.30;2.95;;;15.60;97.90;;;;;;5081562;28;20040;-73
2024/04/06 06:46:48;;;;;;;4.93;3.40;;;15.90;99.90;;;;;;5094028;28;20084;-72
2024/04/06 06:49:14;;;;;;;7.70;3.50;;;16.10;99.90;;;;;;5082124;28;20025;-72
2024/04/06 06:51:40;;;;;;;6.72;3.03;;;16.30;99.90;;;;;;5081664;28;20042;-70
2024/04/06 06:54:06;;;;;;;9.30;2.65;;;16.40;99.90;;;;;;5081456;28;20036;-70
2024/04/06 06:56:31;;;;;;;16.60;3.15;;;16.60;99.90;;;;;;5080697;28;20040;-71
2024/04/06 06:58:58;;;;;;;11.73;2.78;;;16.50;92.70;;;;;;5081228;28;20039;-70
2024/04/06 07:01:24;;;;;;;14.10;3.15;;;16.80;98.50;;;;;;5081283;28;20348;-68
2024/04/06 07:03:50;;;;;;;9.55;3.33;;;16.90;97.10;;;;;;5081263;28;20135;-68
2024/04/06 07:06:16;;;;;;;7.43;2.47;;;17.10;96.40;;;;;;5081013;28;20348;-69
2024/04/06 07:08:45;;;;;;;10.57;2.35;;;17.20;86.80;;;;;;5080947;28;20095;-70
2024/04/06 07:11:12;;;;;;;8.02;2.63;;;17.60;96.80;;;;;;5080845;28;20320;-69
2024/04/06 07:13:38;;;;;;;5.80;3.17;;;17.50;88.90;;;;;;5081160;28;20095;-69
2024/04/06 07:16:08;;;;;;;8.27;2.85;;;17.50;89.00;;;;;;5080036;28;20036;-67
2024/04/06 07:18:35;;;;;;;13.02;2.90;;;17.60;89.30;;;;;;5080924;28;20033;-67
2024/04/06 07:21:01;;;;;;;12.20;2.85;;;17.70;89.50;;;;;;5080747;28;20048;-67
2024/04/06 07:23:26;;;;;;;9.77;2.47;;;17.80;87.70;;;;;;5080730;28;20100;-67
2024/04/06 07:25:53;;;;;;;10.13;2.70;;;17.90;85.70;;;;;;5080282;28;20360;-67
2024/04/06 07:28:19;;;;;;;5.13;2.33;;;18.10;85.30;;;;;;5080576;28;20312;-67
2024/04/06 07:30:46;;;;;;;7.63;2.30;;;18.30;83.90;;;;;;5087280;28;20040;-67
2024/04/06 07:33:12;;;;;;;3.58;2.53;;;18.40;81.60;;;;;;5086625;28;20568;-67
2024/04/06 07:35:38;;;;;;;4.30;2.35;;;18.40;79.80;;;;;;5098596;28;20153;-67
2024/04/06 07:38:04;;;;;;;8.00;2.08;;;18.50;78.50;;;;;;5082311;28;20035;-69
2024/04/06 07:40:30;;;;;;;6.75;2.13;;;18.70;91.40;;;;;;5080791;28;20090;-69
2024/04/06 07:42:56;;;;;;;5.55;2.58;;;19.20;91.00;;;;;;5087303;28;20035;-70
2024/04/06 07:45:22;;;;;;;8.15;2.28;;;18.70;76.20;;;;;;5080418;28;20606;-70
2024/04/06 07:47:48;;;;;;;6.20;2.15;;;18.70;95.30;;;;;;5081180;28;20036;-69
2024/04/06 07:50:15;;;;;;;4.28;2.10;;;18.90;74.80;;;;;;5093832;28;20026;-69
2024/04/06 07:52:40;;;;;;;3.15;2.22;;;19.10;74.20;;;;;;5092043;28;20040;-69
2024/04/06 07:55:06;;;;;;;4.70;2.17;;;19.10;73.70;;;;;;5081257;28;20028;-69
2024/04/06 07:57:32;;;;;;;3.72;2.30;;;19.10;73.50;;;;;;5082399;28;20197;-70
2024/04/06 07:59:58;;;;;;;5.18;2.60;;;19.10;73.60;;;;;;5080956;28;20036;-70
2024/04/06 08:02:23;;;;;;;7.75;2.85;;;19.20;74.40;;;;;;5079865;28;20037;-69
2024/04/06 08:04:55;;;;;;;8.38;2.17;;;19.30;74.20;;;;;;5080678;28;20216;-69
2024/04/06 08:07:25;;;;;;;5.95;2.30;;;19.40;88.50;;;;;;5079849;28;20336;-69
2024/04/06 08:09:56;;;;;;;7.20;2.78;;;19.40;72.40;;;;;;5079742;28;20251;-67
2024/04/06 08:12:22;;;;;;;5.82;2.28;;;;;;;;;;5079676;28;20099;-67
2024/04/06 08:14:48;;;;;;;3.22;2.03;;;;;;;;;;5079553;28;20036;-68
2024/04/06 08:17:15;;;;;;;6.93;2.83;;;;;;;;;;5079537;28;20040;-67
2024/04/06 08:19:41;;;;;;;6.38;2.33;;;;;;;;;;5079693;28;20115;-68
2024/04/06 08:22:07;;;;;;;6.70;2.25;;;19.70;80.60;;;;;;5080288;28;20099;-68
2024/04/06 08:24:32;;;;;;;5.95;2.38;;;19.80;74.20;;;;;;5078321;28;20141;-68
2024/04/06 08:26:59;;;;;;;8.02;2.58;;;;;;;;;;5079728;28;20036;-68
2024/04/06 08:29:25;;;;;;;5.65;1.92;;;;;;;;;;5079580;28;20028;-68
2024/04/06 08:31:51;;;;;;;5.38;1.90;;;;;;;;;;5078422;28;20032;-68
2024/04/06 08:34:17;;;;;;;4.93;2.25;;;;;;;;;;5079816;28;20056;-68
2024/04/06 08:36:43;;;;;;;4.38;1.75;;;;;;;;;;5078354;28;20059;-68
2024/04/06 08:39:08;;;;;;;4.60;1.92;;;20.20;79.60;;;;;;5079663;28;20055;-68
2024/04/06 08:41:35;;;;;;;8.35;2.47;;;20.30;67.40;;;;;;5079431;28;20024;-68
2024/04/06 08:44:02;;;;;;;4.97;2.25;;;20.90;79.50;;;;;;5079285;28;20036;-68
2024/04/06 08:46:28;;;;;;;3.97;1.70;;;20.60;66.10;;;;;;5079398;28;20103;-68
2024/04/06 08:48:55;;;;;;;4.32;2.13;;;21.00;77.80;;;;;;5079070;28;20036;-68
2024/04/06 08:51:23;;;;;;;6.72;2.35;;;21.20;77.10;;;;;;5079573;28;20055;-68
2024/04/06 08:53:49;;;;;;;5.38;2.15;;;21.30;76.50;;;;;;5063819;28;20071;-68
2024/04/06 08:56:16;;;;;;;6.35;2.85;;;21.40;76.30;;;;;;5079084;28;20367;-68
2024/04/06 08:58:42;;;;;;;6.30;1.88;;;21.50;62.50;;;;;;5079207;28;20043;-68
2024/04/06 09:01:11;;;;;;;7.03;2.03;;;21.60;74.70;;;;;;5079305;28;20044;-68
2024/04/06 09:03:36;;;;;;;4.75;2.05;;;21.80;74.40;;;;;;5079252;28;20029;-68
2024/04/06 09:06:03;;;;;;;5.43;2.42;;;21.80;73.60;;;;;;5078912;28;20052;-68
2024/04/06 09:08:29;;;;;;;6.18;2.10;;;22.00;74.40;;;;;;5079158;28;20029;-68
2024/04/06 09:10:57;;;;;;;3.53;1.70;;;22.00;73.70;;;;;;5079567;28;20056;-68
2024/04/06 09:13:23;;;;;;;4.72;2.00;;;22.00;72.40;;;;;;5079117;28;20335;-68
2024/04/06 09:15:49;;;;;;;6.88;1.85;;;;;;;;;;5079080;28;20289;-68
2024/04/06 09:18:17;;;;;;;4.88;1.80;;;22.10;71.30;;;;;;5082233;28;20029;-68
2024/04/06 09:20:49;;;;;;;4.25;1.65;;;22.00;70.80;;;;;;5079099;28;20035;-68
2024/04/06 09:23:15;;;;;;;3.90;2.00;;;22.10;59.00;;;;;;5079304;28;20094;-68
2024/04/06 09:25:41;;;;;;;3.92;2.30;;;22.20;70.70;;;;;;5078910;28;20099;-67
2024/04/06 09:28:10;;;;;;;7.32;2.25;;;22.20;70.40;;;;;;5082754;28;20047;-68
2024/04/06 09:30:46;;;;;;;5.25;2.10;;;22.20;70.40;;;;;;5078995;28;20043;-68
2024/04/06 09:33:12;;;;;;;5.75;2.00;;;22.50;71.20;;;;;;5078909;28;20037;-68
2024/04/06 09:35:39;;;;;;;7.30;2.40;;;22.50;71.10;;;;;;5078886;28;20343;-68
2024/04/06 09:38:11;;;;;;;3.63;1.80;;;22.80;69.90;;;;;;5080353;28;20040;-68
2024/04/06 09:40:37;;;;;;;5.72;1.60;;;23.00;69.00;;;;;;5082666;28;20032;-68
2024/04/06 09:43:03;;;;;;;5.18;1.63;;;23.20;68.90;;;;;;5082324;28;20082;-68
2024/04/06 09:45:31;;;;;;;3.17;1.05;;;23.40;67.30;;;;;;5083135;28;20032;-68
2024/04/06 09:47:59;;;;;;;3.50;1.13;;;23.20;65.00;;;;;;5082596;28;20028;-68
2024/04/06 09:50:27;;;;;;;2.10;1.20;;;23.50;64.10;;;;;;5082436;28;20377;-68
2024/04/06 09:52:52;;;;;;;3.47;1.23;;;23.70;51.90;;;;;;5082431;28;20099;-68
2024/04/06 09:55:18;;;;;;;3.85;1.27;;;23.70;63.60;;;;;;5087261;28;20032;-70
2024/04/06 09:57:45;;;;;;;5.95;2.50;;;23.80;52.70;;;;;;5082580;28;20082;-68
2024/04/06 10:00:12;;;;;;;1.15;0.90;;;24.00;52.20;;;;;;5082237;28;20033;-68
2024/04/06 10:02:39;;;;;;;2.53;1.10;;;24.30;63.20;;;;;;5083139;28;20056;-68
2024/04/06 10:05:05;;;;;;;1.95;0.95;;;24.10;62.50;;;;;;5082350;28;20384;-68
2024/04/06 10:07:34;;;;;;;3.08;1.25;;;24.20;62.40;;;;;;5082339;28;20056;-68
2024/04/06 10:10:06;;;;;;;2.08;1.08;;;24.20;51.20;;;;;;5082275;28;20324;-70
2024/04/06 10:12:46;;;;;;;3.70;1.30;;;24.40;61.10;;;;;;5085017;28;20342;-70
2024/04/06 10:15:17;;;;;;;2.15;1.15;;;24.60;61.00;;;;;;5082048;28;20158;-67
2024/04/06 10:17:53;;;;;;;3.08;1.00;;;24.80;50.20;;;;;;5082075;28;20090;-69
2024/04/06 10:20:22;;;;;;;1.95;1.17;;;25.10;59.50;;;;;;5082602;28;20036;-68
2024/04/06 10:22:57;;;;;;;1.27;0.88;;;25.10;49.40;;;;;;5081751;28;20028;-67
2024/04/06 10:25:30;;;;;;;1.48;0.80;;;25.10;49.10;;;;;;5081734;28;20099;-67
2024/04/06 10:28:01;;;;;;;2.03;0.93;;;25.10;58.70;;;;;;5084281;28;20031;-68
2024/04/06 10:30:27;;;;;;;1.88;0.98;;;25.20;58.00;;;;;;5088588;28;20040;-70
2024/04/06 10:32:53;;;;;;;3.58;1.50;;;25.20;47.60;;;;;;5081475;28;20036;-69
2024/04/06 10:35:19;;;;;;;1.92;1.05;;;25.30;57.10;;;;;;5081642;28;20039;-69
2024/04/06 10:37:47;;;;;;;4.22;1.20;;;25.50;58.40;;;;;;5080818;28;20021;-69
2024/04/06 10:40:13;;;;;;;1.33;1.00;;;25.30;60.30;;;;;;5081643;28;20087;-70
2024/04/06 10:42:40;;;;;;;2.70;1.05;;;25.40;58.50;;;;;;5080074;28;20125;-72
2024/04/06 10:45:08;;;;;;;0.75;0.70;;;24.80;58.20;;;;;;5081347;28;20033;-70
2024/04/06 10:47:37;;;;;;;3.88;1.17;;;25.00;58.70;;;;;;5080156;28;20040;-69
2024/04/06 10:50:03;;;;;;;1.33;0.90;;;24.80;58.00;;;;;;5080080;28;20047;-70
2024/04/06 10:52:29;;;;;;;1.90;0.93;;;25.10;58.50;;;;;;5081352;28;20295;-69
2024/04/06 10:54:55;;;;;;;3.58;1.05;;;25.10;48.70;;;;;;5081838;28;20100;-71
2024/04/06 10:57:22;;;;;;;2.30;1.13;;;25.20;48.70;;;;;;5084794;28;20047;-72
2024/04/06 10:59:48;;;;;;;2.35;1.35;;;25.20;48.30;;;;;;5088823;28;20101;-69
2024/04/06 11:02:15;;;;;;;2.72;1.30;;;25.40;58.50;;;;;;5081207;28;20358;-71
2024/04/06 11:04:41;;;;;;;4.55;1.75;;;25.20;48.80;;;;;;5081298;28;20029;-69
2024/04/06 11:07:06;;;;;;;2.47;1.30;;;25.20;60.40;;;;;;5081108;28;20031;-69
2024/04/06 11:09:35;;;;;;;2.58;1.30;;;25.20;49.20;;;;;;5081280;28;20104;-70
2024/04/06 11:12:00;;;;;;;;;;;25.10;49.30;;;;;;5081902;28;20032;-72
2024/04/06 11:14:26;;;;;;;2.50;1.02;;;24.70;60.00;;;;;;5079633;28;19920;-71
2024/04/06 11:16:53;;;;;;;3.42;1.02;;;24.90;49.70;;;;;;5082297;28;20037;-70
2024/04/06 11:19:19;;;;;;;4.00;1.23;;;24.70;59.40;;;;;;5080800;28;20036;-73
2024/04/06 11:21:45;;;;;;;2.95;1.38;;;;;;;;;;5080752;28;20244;-69
2024/04/06 11:24:12;;;;;;;2.35;1.20;;;25.10;59.50;;;;;;5085533;28;20037;-70
2024/04/06 11:26:37;;;;;;;2.55;1.23;;;24.90;59.60;;;;;;5087148;28;20076;-69
2024/04/06 11:29:03;;;;;;;4.65;1.10;;;24.80;60.00;;;;;;5081516;28;20028;-70
2024/04/06 11:31:29;;;;;;;2.03;0.93;;;24.90;60.40;;;;;;5080546;28;20079;-70
2024/04/06 11:33:57;;;;;;;2.65;1.25;;;25.10;60.40;;;;;;5079154;28;20048;-70
2024/04/06 11:36:23;;;;;;;5.65;0.90;;;25.20;59.00;;;;;;5080451;28;20036;-70
2024/04/06 11:38:48;;;;;;;1.52;1.00;;;25.30;58.00;;;;;;5080418;28;20051;-70
2024/04/06 11:41:14;;;;;;;1.60;1.10;;;;;;;;;;5080179;28;20031;-70
2024/04/06 11:43:40;;;;;;;2.95;1.10;;;25.00;58.90;;;;;;5079119;28;20041;-69
2024/04/06 11:46:06;;;;;;;6.03;1.33;;;25.50;58.90;;;;;;5080904;28;20035;-70
2024/04/06 11:48:32;;;;;;;1.38;0.75;;;25.60;59.00;;;;;;5080316;28;20029;-70
2024/04/06 11:50:58;;;;;;;6.53;1.52;;;25.80;58.10;;;;;;5080329;28;20394;-71
2024/04/06 11:53:25;;;;;;;2.67;1.27;;;25.80;57.60;;;;;;5080106;28;20344;-70
2024/04/06 11:55:50;;;;;;;2.35;1.30;;;25.80;57.00;;;;;;5079940;28;20047;-70
2024/04/06 11:58:16;;;;;;;1.88;1.30;;;25.80;57.00;;;;;;5093368;28;20055;-70
2024/04/06 12:00:42;;;;;;;1.80;1.20;;;25.90;56.30;;;;;;5092799;28;20070;-71
2024/04/06 12:03:07;;;;;;;1.75;1.20;;;25.90;56.40;;;;;;5074819;28;20037;-70
2024/04/06 12:05:33;;;;;;;2.58;1.20;;;25.80;51.60;;;;;;5091539;28;20103;-70
2024/04/06 12:08:00;;;;;;;3.38;1.30;;;26.20;56.70;;;;;;5087030;28;20036;-71
2024/04/06 12:10:25;;;;;;;3.10;0.85;;;26.50;52.70;;;;;;5079729;28;20040;-70
2024/04/06 12:12:51;;;;;;;3.10;1.23;;;26.90;55.50;;;;;;5079612;28;20032;-70
2024/04/06 12:15:18;;;;;;;2.72;1.08;;;27.40;54.20;;;;;;5079607;28;20069;-72
2024/04/06 12:17:44;;;;;;;2.38;1.00;;;27.20;56.00;;;;;;5080135;28;20041;-72
2024/04/06 12:20:10;;;;;;;4.00;1.20;;;27.10;54.10;;;;;;5079523;28;20095;-72
2024/04/06 12:22:36;;;;;;;1.80;1.30;;;27.10;54.00;;;;;;5079562;28;20036;-73
2024/04/06 12:25:01;;;;;;;2.45;1.02;;;27.30;54.10;;;;;;5079327;28;20056;-72
2024/04/06 12:27:27;;;;;;;2.08;0.95;;;27.20;53.80;;;;;;5079664;28;20348;-71
2024/04/06 12:29:53;;;;;;;3.95;1.20;;;27.50;53.80;;;;;;5079528;28;20043;-71
2024/04/06 12:32:19;;;;;;;2.90;0.85;;;27.20;53.70;;;;;;5079645;28;20347;-71
2024/04/06 12:34:45;;;;;;;3.17;0.88;;;27.40;53.50;;;;;;5080256;28;20041;-71
2024/04/06 12:37:13;;;;;;;8.90;1.40;;;27.10;53.60;;;;;;5079309;28;20031;-71
2024/04/06 12:39:39;;;;;;;;;;;27.00;44.80;;;;;;5080070;28;20032;-71
2024/04/06 12:42:08;;;;;;;2.25;1.00;;;26.50;54.60;;;;;;5079451;28;20223;-71
2024/04/06 12:44:34;;;;;;;4.88;1.38;;;26.30;55.10;;;;;;5079489;28;20054;-71
2024/04/06 12:47:05;;;;;;;2.88;1.38;;;26.20;46.00;;;;;;5079241;28;20032;-71
2024/04/06 12:49:31;;;;;;;2.75;1.15;;;26.00;56.20;;;;;;5079335;28;20074;-70
2024/04/06 12:51:57;;;;;;;8.73;1.42;;;;;;;;;;5079853;28;20092;-71